Terminal Aerodrome Forecast
Issued by NWS Tampa Bay Area, FL

Current Version | Previous Version | Text Only | Print | Product List | Glossary On
Versions: 1 2 3 4 5 6 7 8 9 10 11 12 13 14 15 16 17
000
FTUS42 KTBW 280500 RRA
TAFFMY
TAF
KFMY 280547Z 2806/2824 00000KT 5SM BR FEW015 BKN035
      TEMPO 2809/2812 1SM BR BKN006
     FM281300 00000KT 3SM BR SCT005 SCT250
     FM281400 17004KT P6SM SCT005 SCT250
     FM281700 19006KT P6SM SCT025 SCT250=

USA.gov is the U.S. government's official web portal to all federal, state and local government web resources and services.